Time;durP1;ratioP1;P1;durP2;ratioP2;P2;SDS_P1;SDS_P2;PMS_P1;PMS_P2;Temp;Humidity;BMP_temperature;BMP_pressure;BME280_temperature;BME280_humidity;BME280_pressure;Samples;Min_cycle;Max_cycle;Signal;HPM_P1;HPM_P2
2021/10/07 00:02:04;;;;;;;4.17;2.40;;;;;;;11.93;73.70;97368.75;5092469;28;20343;-65
2021/10/07 00:04:30;;;;;;;3.17;2.27;;;;;;;12.09;72.91;97374.13;5091681;28;20249;-66
2021/10/07 00:06:56;;;;;;;3.33;2.00;;;;;;;12.03;73.15;97374.75;5091707;28;20659;-66
2021/10/07 00:09:22;;;;;;;10.13;2.20;;;;;;;12.14;72.85;97369.22;5092353;28;20451;-66
2021/10/07 00:11:48;;;;;;;6.83;2.33;;;;;;;12.55;71.42;97358.00;5089746;28;20174;-66
2021/10/07 00:14:13;;;;;;;2.80;1.80;;;;;;;12.72;70.93;97364.13;5091070;28;20961;-65
2021/10/07 00:16:39;;;;;;;2.90;1.60;;;;;;;12.71;70.40;97356.38;5092491;28;20266;-66
2021/10/07 00:19:04;;;;;;;3.03;1.80;;;;;;;12.83;69.75;97362.16;5091708;28;20764;-66
2021/10/07 00:21:30;;;;;;;2.60;1.90;;;;;;;12.06;71.93;97365.72;5088031;28;20240;-64
2021/10/07 00:24:08;;;;;;;5.07;2.10;;;;;;;12.09;72.82;97361.00;5089596;28;20182;-66
2021/10/07 00:26:44;;;;;;;3.60;2.23;;;;;;;12.08;72.96;97363.75;5092780;28;20644;-65
2021/10/07 00:32:09;;;;;;;4.67;2.13;;;;;;;12.48;71.42;97356.16;5092251;28;20502;-65
2021/10/07 00:39:45;;;;;;;12.67;2.30;;;;;;;12.27;72.30;97346.91;5092184;28;20446;-66
2021/10/07 00:42:11;;;;;;;2.90;1.90;;;;;;;11.93;73.23;97353.81;5092305;28;20456;-64
2021/10/07 00:44:39;;;;;;;2.47;1.97;;;;;;;12.31;71.72;97356.13;5092021;28;20188;-66
2021/10/07 00:47:05;;;;;;;3.90;2.40;;;;;;;12.36;71.34;97353.03;5091752;28;20420;-65
2021/10/07 00:49:39;;;;;;;6.40;2.07;;;;;;;12.34;71.63;97347.09;5090335;28;20520;-64
2021/10/07 00:52:14;;;;;;;3.60;2.10;;;;;;;12.35;71.45;97357.44;5084294;28;20444;-65
2021/10/07 00:54:40;;;;;;;3.57;2.07;;;;;;;12.26;71.80;97358.41;5092330;28;20411;-66
2021/10/07 00:57:06;;;;;;;3.07;1.90;;;;;;;12.38;71.06;97351.88;5091554;28;20801;-65
2021/10/07 00:59:36;;;;;;;3.07;1.90;;;;;;;12.49;70.70;97352.56;5090574;28;20198;-65
2021/10/07 01:02:05;;;;;;;5.47;1.83;;;;;;;12.35;70.90;97352.19;5091113;28;20448;-64
2021/10/07 01:04:31;;;;;;;2.40;1.67;;;;;;;12.07;72.13;97359.50;5091978;28;20447;-63
2021/10/07 01:06:57;;;;;;;3.10;1.80;;;;;;;12.12;72.28;97359.84;5091443;28;20497;-66
2021/10/07 01:09:22;;;;;;;3.20;1.80;;;;;;;12.17;72.32;97362.00;5089914;28;20226;-65
2021/10/07 01:11:48;;;;;;;1.90;1.53;;;;;;;12.59;70.68;97358.53;5091507;28;20174;-64
2021/10/07 01:14:17;;;;;;;1.50;1.40;;;;;;;12.68;70.10;97357.53;5091691;28;20174;-67
2021/10/07 01:16:42;;;;;;;2.23;1.90;;;;;;;12.60;70.23;97357.53;5091393;28;20174;-66
2021/10/07 01:19:08;;;;;;;3.53;1.87;;;;;;;12.72;70.08;97372.03;5091113;28;20439;-65
2021/10/07 01:21:33;;;;;;;2.50;1.70;;;;;;;12.79;69.78;97366.91;5086496;28;20198;-63
2021/10/07 01:23:59;;;;;;;3.30;1.60;;;;;;;12.84;69.44;97363.81;5089532;28;20185;-65
2021/10/07 01:26:26;;;;;;;3.47;1.70;;;;;;;12.97;68.94;97371.22;5091610;28;20185;-65
2021/10/07 01:28:52;;;;;;;2.77;1.70;;;;;;;12.58;70.50;97362.13;5091551;28;20688;-65
2021/10/07 01:31:18;;;;;;;2.50;1.90;;;;;;;12.59;70.11;97364.59;5090965;28;20412;-67
2021/10/07 01:33:44;;;;;;;3.53;1.60;;;;;;;12.67;69.88;97376.09;5091132;28;20173;-65
2021/10/07 01:36:10;;;;;;;2.93;1.73;;;;;;;12.86;69.44;97367.91;5090706;28;20439;-66
2021/10/07 01:38:36;;;;;;;3.93;1.90;;;;;;;12.99;69.01;97374.50;5091124;28;20455;-66
2021/10/07 01:41:02;;;;;;;2.70;1.60;;;;;;;13.03;68.93;97375.84;5091095;28;20451;-65
2021/10/07 01:43:27;;;;;;;2.80;1.70;;;;;;;13.06;68.83;97373.69;5091417;28;20424;-65
2021/10/07 01:45:53;;;;;;;2.57;1.90;;;;;;;13.13;68.46;97373.03;5090999;28;20181;-65
2021/10/07 01:48:19;;;;;;;1.37;1.27;;;;;;;13.12;68.23;97371.38;5090785;28;20201;-66
2021/10/07 01:50:45;;;;;;;2.17;1.60;;;;;;;13.05;68.49;97373.84;5090916;28;20178;-64
2021/10/07 01:53:10;;;;;;;1.60;1.50;;;;;;;13.11;68.30;97372.34;5083916;28;20197;-65
2021/10/07 01:55:36;;;;;;;2.97;1.60;;;;;;;13.11;68.29;97373.19;5090976;28;20963;-65
2021/10/07 01:58:02;;;;;;;2.60;1.60;;;;;;;13.13;68.57;97368.59;5090497;28;20225;-66
2021/10/07 02:00:28;;;;;;;4.00;1.90;;;;;;;13.13;68.68;97368.59;5090807;28;20181;-65
2021/10/07 02:02:53;;;;;;;1.67;1.47;;;;;;;13.12;68.62;97364.31;5090539;28;20465;-65
2021/10/07 02:05:19;;;;;;;4.30;1.70;;;;;;;13.08;68.58;97368.25;5088386;28;20205;-65
2021/10/07 02:07:45;;;;;;;7.50;1.63;;;;;;;13.12;68.50;97371.38;5090757;28;20247;-66
2021/10/07 02:10:14;;;;;;;2.90;1.73;;;;;;;13.16;68.31;97372.69;5090591;28;20189;-65
2021/10/07 02:12:45;;;;;;;1.50;1.30;;;;;;;13.19;68.28;97369.75;5091092;28;20608;-66
2021/10/07 02:15:10;;;;;;;2.00;1.80;;;;;;;13.17;68.14;97371.72;5090625;28;20451;-64
2021/10/07 02:17:37;;;;;;;4.20;1.83;;;;;;;13.14;68.42;97377.28;5090607;28;20447;-65
2021/10/07 02:20:05;;;;;;;2.80;1.83;;;;;;;13.03;68.50;97374.00;5090998;28;20268;-66
2021/10/07 02:22:31;;;;;;;2.63;2.10;;;;;;;12.92;68.76;97369.06;5083915;28;20508;-64
2021/10/07 02:24:56;;;;;;;2.13;1.90;;;;;;;12.97;68.57;97374.69;5089832;28;20420;-66
2021/10/07 02:27:22;;;;;;;3.97;1.73;;;;;;;12.90;68.64;97368.41;5092957;28;20186;-66
2021/10/07 02:29:47;;;;;;;2.37;1.63;;;;;;;12.97;68.82;97372.06;5095556;28;20217;-66
2021/10/07 02:32:13;;;;;;;1.93;1.50;;;;;;;12.88;68.90;97370.38;5095276;28;20269;-66
2021/10/07 02:34:39;;;;;;;3.10;1.70;;;;;;;12.95;68.79;97379.28;5094985;28;20234;-66
2021/10/07 02:37:05;;;;;;;2.90;1.67;;;;;;;13.01;68.83;97373.34;5094514;28;20197;-65
2021/10/07 02:39:30;;;;;;;4.03;1.80;;;;;;;13.06;68.44;97375.47;5094697;28;20293;-65
2021/10/07 02:41:56;;;;;;;2.47;1.30;;;;;;;12.83;69.26;97384.00;5094080;28;20205;-66
2021/10/07 02:44:21;;;;;;;5.97;1.50;;;;;;;12.92;69.08;97379.59;5094278;28;20174;-66
2021/10/07 02:46:47;;;;;;;5.13;1.83;;;;;;;12.72;69.64;97374.66;5094432;28;20178;-66
2021/10/07 02:49:12;;;;;;;2.40;1.70;;;;;;;12.55;70.39;97384.28;5094100;28;20213;-66
2021/10/07 02:51:38;;;;;;;2.07;1.47;;;;;;;12.64;70.35;97387.75;5088873;28;20187;-66
2021/10/07 02:54:04;;;;;;;3.07;1.70;;;;;;;12.73;69.73;97384.16;5093062;28;20625;-66
2021/10/07 02:56:29;;;;;;;3.57;1.80;;;;;;;12.80;69.32;97386.97;5094333;28;20178;-66
2021/10/07 02:58:55;;;;;;;1.70;1.60;;;;;;;12.90;69.39;97392.09;5093522;28;20205;-66
2021/10/07 03:01:20;;;;;;;2.43;1.67;;;;;;;12.99;68.98;97391.09;5086654;28;20616;-65
2021/10/07 03:03:46;;;;;;;5.00;1.97;;;;;;;13.04;68.98;97391.44;5094198;28;20193;-66
2021/10/07 03:06:12;;;;;;;1.73;1.63;;;;;;;13.03;68.54;97387.16;5093061;28;20208;-64
2021/10/07 03:08:37;;;;;;;2.70;1.70;;;;;;;13.04;68.77;97393.25;5093946;28;20243;-65
2021/10/07 03:11:03;;;;;;;2.10;1.90;;;;;;;13.02;68.51;97385.50;5079854;28;20189;-65
2021/10/07 03:13:28;;;;;;;2.47;1.90;;;;;;;13.05;68.71;97395.72;5093679;28;20182;-67
2021/10/07 03:15:54;;;;;;;2.90;1.73;;;;;;;13.05;68.83;97392.25;5094446;28;20184;-64
2021/10/07 03:18:19;;;;;;;2.07;1.60;;;;;;;13.00;68.49;97398.00;5095831;28;20217;-65
2021/10/07 03:20:45;;;;;;;3.33;1.77;;;;;;;13.04;68.46;97399.34;5096180;28;20173;-66
2021/10/07 03:23:11;;;;;;;1.90;1.80;;;;;;;13.05;68.79;97406.25;5093971;28;20182;-64
2021/10/07 03:25:36;;;;;;;1.73;1.43;;;;;;;13.04;68.60;97407.22;5093656;28;20203;-63
2021/10/07 03:28:02;;;;;;;2.10;2.00;;;;;;;13.09;68.65;97411.19;5093530;28;20212;-65
2021/10/07 03:30:28;;;;;;;1.97;1.77;;;;;;;13.08;68.75;97402.47;5094243;28;20184;-64
2021/10/07 03:32:53;;;;;;;4.50;1.70;;;;;;;12.97;68.54;97405.41;5096864;28;20210;-66
2021/10/07 03:35:19;;;;;;;6.90;2.30;;;;;;;12.86;69.07;97406.53;5100232;28;20204;-65
2021/10/07 03:37:44;;;;;;;4.40;1.90;;;;;;;12.88;69.48;97409.84;5100073;28;20178;-64
2021/10/07 03:40:11;;;;;;;4.77;2.17;;;;;;;12.81;69.06;97403.59;5101097;28;20692;-65
2021/10/07 03:42:37;;;;;;;3.13;1.80;;;;;;;12.84;69.27;97411.97;5089694;28;20186;-66
2021/10/07 03:45:03;;;;;;;8.20;2.00;;;;;;;12.77;69.67;97410.97;5092973;28;20420;-64
2021/10/07 03:47:30;;;;;;;2.43;2.23;;;;;;;12.94;68.83;97406.56;5092962;28;20192;-64
2021/10/07 03:49:58;;;;;;;2.40;2.20;;;;;;;13.00;68.68;97420.88;5092791;28;20435;-66
2021/10/07 03:52:24;;;;;;;5.57;2.40;;;;;;;13.06;68.73;97420.22;5092790;28;20419;-65
2021/10/07 03:54:51;;;;;;;2.50;2.00;;;;;;;13.09;68.50;97413.81;5092511;28;20416;-66
2021/10/07 03:57:16;;;;;;;2.00;1.80;;;;;;;13.08;68.29;97420.88;5092896;28;20907;-66
2021/10/07 03:59:42;;;;;;;4.33;2.27;;;;;;;12.93;68.88;97420.69;5092967;28;20497;-66
2021/10/07 04:02:08;;;;;;;2.20;2.00;;;;;;;12.94;68.95;97419.72;5092445;28;20221;-66
2021/10/07 04:04:33;;;;;;;7.23;2.10;;;;;;;12.58;69.45;97425.22;5092277;28;20177;-65
2021/10/07 04:06:59;;;;;;;2.70;1.90;;;;;;;12.74;69.45;97419.19;5092389;28;20189;-65
2021/10/07 04:09:24;;;;;;;2.40;2.20;;;;;;;12.90;68.93;97419.22;5092161;28;20254;-65
2021/10/07 04:11:50;;;;;;;3.03;2.10;;;;;;;12.95;68.83;97416.09;5086101;28;20319;-66
2021/10/07 04:14:15;;;;;;;2.30;2.20;;;;;;;12.96;68.66;97423.00;5092578;28;20181;-65
2021/10/07 04:16:41;;;;;;;3.50;2.50;;;;;;;12.96;68.54;97430.91;5092362;28;20193;-66
2021/10/07 04:19:07;;;;;;;2.60;2.17;;;;;;;12.95;68.79;97433.69;5092078;28;20202;-66
2021/10/07 04:21:32;;;;;;;3.70;2.40;;;;;;;13.00;68.77;97436.66;5090924;28;20190;-65
2021/10/07 04:23:58;;;;;;;5.33;2.70;;;;;;;12.95;68.56;97434.53;5092166;28;20242;-65
2021/10/07 04:26:24;;;;;;;4.80;2.50;;;;;;;12.86;68.86;97438.09;5092752;28;20683;-65
2021/10/07 04:28:49;;;;;;;12.60;2.53;;;;;;;12.70;69.09;97434.47;5092029;28;20202;-66
2021/10/07 04:31:15;;;;;;;6.40;3.10;;;;;;;12.67;69.71;97436.56;5092020;28;20174;-65
2021/10/07 04:33:41;;;;;;;6.37;3.47;;;;;;;12.77;69.33;97434.66;5091176;28;20181;-66
2021/10/07 04:36:06;;;;;;;5.80;3.60;;;;;;;12.86;68.90;97431.03;5091961;28;20277;-66
2021/10/07 04:38:32;;;;;;;6.03;2.87;;;;;;;12.93;68.67;97433.00;5091695;28;20205;-66
2021/10/07 04:40:58;;;;;;;4.90;3.27;;;;;;;12.98;68.50;97438.63;5087179;28;20182;-66
2021/10/07 04:43:23;;;;;;;3.70;2.53;;;;;;;12.72;69.52;97444.81;5092377;28;20173;-63
2021/10/07 04:45:49;;;;;;;3.80;3.10;;;;;;;12.63;69.86;97449.22;5093714;28;20675;-66
2021/10/07 04:48:14;;;;;;;2.70;2.43;;;;;;;12.87;68.89;97445.00;5091985;28;20201;-64
2021/10/07 04:50:40;;;;;;;4.40;2.63;;;;;;;12.90;68.89;97449.94;5091788;28;20264;-66
2021/10/07 04:53:05;;;;;;;4.03;2.43;;;;;;;12.99;68.58;97454.25;5092055;28;20181;-65
2021/10/07 04:55:31;;;;;;;5.63;2.50;;;;;;;13.04;68.61;97454.59;5091988;28;20209;-66
2021/10/07 04:57:57;;;;;;;2.63;2.43;;;;;;;13.06;68.18;97457.88;5091553;28;20243;-66
2021/10/07 05:00:22;;;;;;;3.20;2.80;;;;;;;13.08;68.42;97462.97;5091825;28;20193;-67
2021/10/07 05:02:48;;;;;;;3.00;2.27;;;;;;;13.08;68.34;97459.53;5091928;28;20288;-66
2021/10/07 05:05:14;;;;;;;3.27;2.40;;;;;;;13.09;68.46;97466.44;5083776;28;20170;-65
2021/10/07 05:07:39;;;;;;;4.60;2.33;;;;;;;13.12;68.51;97463.47;5091363;28;20203;-65
2021/10/07 05:10:08;;;;;;;5.10;2.83;;;;;;;13.16;68.28;97470.91;5087007;28;20198;-66
2021/10/07 05:12:34;;;;;;;3.07;2.47;;;;;;;13.00;68.82;97476.94;5090716;28;20174;-66
2021/10/07 05:15:00;;;;;;;7.70;2.70;;;;;;;12.81;69.62;97474.59;5056836;28;20441;-67
2021/10/07 05:17:25;;;;;;;7.47;3.20;;;;;;;12.99;69.19;97488.44;5090224;28;20207;-65
2021/10/07 05:19:51;;;;;;;4.83;2.90;;;;;;;13.05;68.74;97481.72;5089627;28;20212;-66
2021/10/07 05:22:16;;;;;;;11.00;2.90;;;;;;;13.09;68.54;97479.59;5090855;28;20189;-66
2021/10/07 05:24:42;;;;;;;6.23;2.33;;;;;;;13.09;68.60;97484.88;5085267;28;20192;-66
2021/10/07 05:27:07;;;;;;;3.67;2.70;;;;;;;12.90;69.12;97485.00;5090999;28;20576;-66
2021/10/07 05:29:33;;;;;;;5.07;2.63;;;;;;;13.06;68.89;97489.47;5090885;28;20284;-66
2021/10/07 05:31:59;;;;;;;7.43;2.30;;;;;;;13.10;68.87;97486.50;5091030;28;20196;-66
2021/10/07 05:34:24;;;;;;;3.10;2.60;;;;;;;13.12;68.52;97488.00;5091387;28;20173;-67
2021/10/07 05:36:50;;;;;;;3.93;2.83;;;;;;;13.16;68.37;97489.31;5091077;28;20205;-66
2021/10/07 05:39:16;;;;;;;6.10;2.97;;;;;;;13.16;68.67;97501.63;5090849;28;20703;-65
2021/10/07 05:41:41;;;;;;;4.13;2.87;;;;;;;13.21;68.32;97507.25;5091421;28;20615;-67
2021/10/07 05:44:10;;;;;;;2.70;2.50;;;;;;;13.19;68.57;97506.59;5091090;28;20189;-67
2021/10/07 05:46:36;;;;;;;4.50;3.30;;;;;;;13.15;68.50;97500.84;5091221;28;20181;-66
2021/10/07 05:49:03;;;;;;;3.30;2.73;;;;;;;13.18;68.34;97508.38;5090874;28;20978;-65
2021/10/07 05:51:28;;;;;;;4.83;2.90;;;;;;;13.22;68.14;97506.28;5091302;28;20412;-65
2021/10/07 05:53:54;;;;;;;3.67;2.90;;;;;;;13.25;68.17;97505.94;5088122;28;20902;-66
2021/10/07 05:56:19;;;;;;;5.60;2.67;;;;;;;13.28;67.86;97510.88;5092550;28;20596;-66
2021/10/07 05:58:45;;;;;;;3.13;2.83;;;;;;;13.35;67.71;97505.78;5093083;28;20201;-66
2021/10/07 06:01:11;;;;;;;5.40;2.80;;;;;;;13.39;67.66;97515.03;5093136;28;20359;-65
2021/10/07 06:03:36;;;;;;;2.70;2.50;;;;;;;13.43;67.40;97512.91;5095215;28;20178;-66
2021/10/07 06:06:02;;;;;;;4.53;2.47;;;;;;;13.44;67.40;97518.00;5094911;28;20600;-65
2021/10/07 06:08:28;;;;;;;3.13;2.50;;;;;;;13.49;67.40;97517.50;5094383;28;20602;-63
2021/10/07 06:10:53;;;;;;;5.43;3.03;;;;;;;13.47;67.32;97520.31;5094005;28;20196;-64
2021/10/07 06:13:19;;;;;;;3.40;2.93;;;;;;;13.50;67.34;97513.88;5088967;28;20181;-66
2021/10/07 06:15:45;;;;;;;5.87;4.10;;;;;;;13.48;67.11;97510.63;5094659;28;20190;-65
2021/10/07 06:18:10;;;;;;;44.03;14.10;;;;;;;13.45;67.33;97516.19;5094102;28;20698;-65
2021/10/07 06:20:36;;;;;;;8.83;3.77;;;;;;;13.35;67.52;97517.16;5095138;28;20173;-65
2021/10/07 06:23:06;;;;;;;41.70;14.07;;;;;;;13.47;67.27;97519.50;5091086;28;20704;-66
2021/10/07 06:25:34;;;;;;;20.03;9.13;;;;;;;13.48;67.35;97519.31;5094982;28;20477;-68
2021/10/07 06:28:01;;;;;;;10.00;4.63;;;;;;;13.40;66.81;97523.75;5092928;28;20454;-66
2021/10/07 06:30:27;;;;;;;33.70;9.50;;;;;;;13.42;67.04;97527.06;5094578;28;20452;-65
2021/10/07 06:32:52;;;;;;;18.00;6.23;;;;;;;13.56;66.84;97530.84;5094282;28;20452;-65
2021/10/07 06:35:18;;;;;;;8.70;5.10;;;;;;;13.71;66.45;97536.31;5094289;28;20197;-68
2021/10/07 06:37:44;;;;;;;7.50;3.80;;;;;;;13.74;66.62;97535.94;5093133;28;20265;-65
2021/10/07 06:40:09;;;;;;;5.87;3.80;;;;;;;13.80;66.59;97537.94;5094558;28;20553;-66
2021/10/07 06:42:35;;;;;;;6.53;4.20;;;;;;;13.87;66.35;97538.91;5094527;28;20209;-66
2021/10/07 06:45:05;;;;;;;5.63;3.70;;;;;;;13.52;66.90;97538.25;5094318;28;20528;-66
2021/10/07 06:47:30;;;;;;;7.30;3.20;;;;;;;13.60;66.79;97535.66;5094616;28;21128;-66
2021/10/07 06:49:56;;;;;;;4.03;3.63;;;;;;;13.41;67.32;97541.19;5094211;28;20443;-65
2021/10/07 06:52:22;;;;;;;9.80;4.40;;;;;;;13.07;67.58;97550.78;5094499;28;20231;-66
2021/10/07 06:54:47;;;;;;;8.77;5.00;;;;;;;13.35;67.17;97554.00;5090746;28;20284;-67
2021/10/07 06:57:13;;;;;;;10.03;5.13;;;;;;;13.44;66.21;97549.59;5094447;28;20181;-67
2021/10/07 06:59:38;;;;;;;7.83;5.20;;;;;;;13.34;65.73;97557.63;5093614;28;20244;-66
2021/10/07 07:02:05;;;;;;;16.80;6.50;;;;;;;13.28;65.77;97546.91;5092742;28;20201;-65
2021/10/07 07:04:30;;;;;;;7.40;5.87;;;;;;;13.00;66.18;97552.41;5092730;28;20526;-65
2021/10/07 07:06:56;;;;;;;10.83;5.77;;;;;;;12.85;66.52;97546.94;5092720;28;20512;-66
2021/10/07 07:09:22;;;;;;;10.57;4.87;;;;;;;13.01;66.01;97549.63;5093560;28;20616;-66
2021/10/07 07:11:47;;;;;;;8.57;5.13;;;;;;;13.03;66.27;97550.28;5093845;28;20261;-66
2021/10/07 07:14:13;;;;;;;8.00;5.40;;;;;;;13.01;66.14;97560.16;5093432;28;20194;-66
2021/10/07 07:16:38;;;;;;;5.60;4.70;;;;;;;13.15;65.94;97556.09;5092383;28;20652;-65
2021/10/07 07:19:04;;;;;;;8.90;5.27;;;;;;;13.31;65.09;97568.47;5093294;28;20201;-65
2021/10/07 07:21:32;;;;;;;7.50;5.63;;;;;;;13.48;64.69;97568.53;5094199;28;20293;-67
2021/10/07 07:24:00;;;;;;;5.70;4.97;;;;;;;13.28;65.06;97568.78;5090477;28;20193;-65
2021/10/07 07:26:27;;;;;;;5.87;5.17;;;;;;;13.02;65.93;97571.50;5093685;28;20416;-66
2021/10/07 07:28:53;;;;;;;9.43;5.20;;;;;;;13.32;65.23;97569.28;5093198;28;20581;-66
2021/10/07 07:31:19;;;;;;;6.80;5.53;;;;;;;13.54;64.12;97575.78;5093817;28;20408;-66
2021/10/07 07:33:46;;;;;;;5.77;5.03;;;;;;;13.82;63.31;97567.59;5093773;28;20792;-67
2021/10/07 07:36:19;;;;;;;10.90;4.80;;;;;;;13.79;63.70;97570.53;5093484;28;20431;-65
2021/10/07 07:38:45;;;;;;;10.47;6.03;;;;;;;13.40;64.69;97574.63;5092343;28;20468;-67
2021/10/07 07:41:11;;;;;;;12.33;6.40;;;;;;;13.31;64.97;97576.38;5095174;28;20533;-66
2021/10/07 07:43:38;;;;;;;56.80;18.87;;;;;;;13.35;65.64;97577.69;5101883;28;20588;-65
2021/10/07 07:46:03;;;;;;;186.83;36.60;;;;;;;13.25;65.83;97578.81;5104678;28;20495;-65
2021/10/07 07:48:29;;;;;;;49.63;15.53;;;;;;;13.35;65.57;97574.22;5106473;28;20440;-66
2021/10/07 07:50:54;;;;;;;23.87;9.93;;;;;;;13.37;65.56;97572.25;5105521;28;20261;-67
2021/10/07 07:53:20;;;;;;;46.83;14.03;;;;;;;13.83;64.09;97572.69;5100679;28;20170;-68
2021/10/07 07:55:46;;;;;;;15.13;6.77;;;;;;;13.59;64.57;97578.75;5093735;28;20272;-65
2021/10/07 07:58:12;;;;;;;12.03;7.10;;;;;;;13.96;64.31;97576.63;5092989;28;20233;-66
2021/10/07 08:00:39;;;;;;;12.40;8.10;;;;;;;13.91;63.86;97581.59;5093685;28;20387;-66
2021/10/07 08:03:06;;;;;;;10.03;6.33;;;;;;;14.14;63.07;97589.63;5094993;28;20443;-66
2021/10/07 08:05:32;;;;;;;9.10;7.00;;;;;;;14.14;63.46;97581.72;5092571;28;20527;-66
2021/10/07 08:07:58;;;;;;;8.23;6.13;;;;;;;14.39;62.99;97592.25;5091448;28;20785;-66
2021/10/07 08:10:23;;;;;;;20.70;10.03;;;;;;;14.48;62.88;97590.44;5092935;28;20454;-66
2021/10/07 08:12:49;;;;;;;53.90;16.80;;;;;;;14.49;62.03;97592.06;5093020;28;20177;-66
2021/10/07 08:15:15;;;;;;;8.03;6.47;;;;;;;13.98;63.24;97591.31;5092670;28;20234;-64
2021/10/07 08:17:41;;;;;;;12.93;7.60;;;;;;;13.55;65.34;97595.88;5091170;28;20526;-66
2021/10/07 08:20:08;;;;;;;8.80;7.90;;;;;;;14.06;63.73;97592.28;5093309;28;20443;-67
2021/10/07 08:22:34;;;;;;;16.13;7.93;;;;;;;13.85;64.26;97590.97;5073486;28;20201;-67
2021/10/07 08:25:01;;;;;;;9.07;6.93;;;;;;;13.51;65.42;97599.78;5090497;28;20411;-65
2021/10/07 08:27:26;;;;;;;11.17;7.30;;;;;;;13.80;64.23;97609.88;5091526;28;20419;-66
2021/10/07 08:29:53;;;;;;;7.57;6.50;;;;;;;13.83;64.11;97598.22;5092587;28;20432;-66
2021/10/07 08:32:19;;;;;;;10.63;7.33;;;;;;;14.23;62.73;97607.13;5093532;28;20242;-66
2021/10/07 08:34:45;;;;;;;7.83;7.03;;;;;;;14.18;63.40;97604.16;5094619;28;20420;-66
2021/10/07 08:37:10;;;;;;;9.57;7.53;;;;;;;13.79;64.30;97618.78;5095863;28;20721;-68
2021/10/07 08:39:37;;;;;;;9.90;7.20;;;;;;;14.20;62.74;97610.09;5102546;28;20938;-67
2021/10/07 08:42:03;;;;;;;9.40;6.50;;;;;;;14.35;62.16;97614.69;5101802;28;20567;-66
2021/10/07 08:44:29;;;;;;;7.77;6.47;;;;;;;14.43;62.13;97609.41;5096601;28;20423;-66
2021/10/07 08:46:55;;;;;;;10.00;7.03;;;;;;;14.82;61.06;97610.47;5091550;28;20865;-65
2021/10/07 08:49:23;;;;;;;8.10;6.37;;;;;;;15.08;60.30;97612.88;5093169;28;20467;-66
2021/10/07 08:51:49;;;;;;;11.00;6.00;;;;;;;15.28;59.03;97607.19;5094262;28;20416;-68
2021/10/07 08:54:16;;;;;;;8.17;6.23;;;;;;;15.69;58.63;97608.78;5091326;28;20520;-66
2021/10/07 08:56:42;;;;;;;12.60;7.43;;;;;;;15.42;58.37;97611.72;5101575;28;20415;-66
2021/10/07 08:59:07;;;;;;;7.17;6.53;;;;;;;15.86;57.20;97606.88;5101375;28;20570;-67
2021/10/07 09:01:40;;;;;;;11.43;8.50;;;;;;;15.84;57.26;97595.63;5101064;28;20257;-66
2021/10/07 09:04:28;;;;;;;8.90;7.57;;;;;;;15.38;58.56;97597.22;5094377;28;20242;-66
2021/10/07 09:07:05;;;;;;;9.40;7.40;;;;;;;15.82;56.95;97598.44;5091965;28;20514;-65
2021/10/07 09:09:32;;;;;;;5.93;5.43;;;;;;;16.22;55.69;97606.28;5092829;28;20440;-67
2021/10/07 09:12:00;;;;;;;12.50;6.40;;;;;;;15.62;56.69;97600.75;5093982;28;20443;-67
2021/10/07 09:14:31;;;;;;;6.33;5.73;;;;;;;15.27;58.33;97601.09;5092814;28;20424;-66
2021/10/07 09:16:57;;;;;;;6.23;5.70;;;;;;;15.46;57.79;97605.13;5091396;28;20517;-65
2021/10/07 09:19:24;;;;;;;7.83;6.60;;;;;;;16.03;55.92;97608.41;5094941;28;20450;-66
2021/10/07 09:21:53;;;;;;;6.40;5.57;;;;;;;16.39;54.40;97607.75;5093007;28;20824;-65
2021/10/07 09:24:58;;;;;;;8.47;5.80;;;;;;;16.59;54.79;97609.91;5089600;28;20438;-66
2021/10/07 09:27:26;;;;;;;10.80;5.53;;;;;;;16.83;54.04;97613.28;5092539;28;20431;-67
2021/10/07 09:29:54;;;;;;;8.00;6.30;;;;;;;16.67;54.23;97612.44;5092107;28;20455;-67
2021/10/07 09:32:35;;;;;;;7.17;5.73;;;;;;;16.42;55.09;97615.34;5091173;28;20404;-65
2021/10/07 09:35:04;;;;;;;7.80;5.50;;;;;;;16.00;56.24;97621.16;5089386;28;20416;-65
2021/10/07 09:37:35;;;;;;;10.80;6.33;;;;;;;15.90;55.88;97618.72;5093843;28;20435;-65
2021/10/07 09:40:11;;;;;;;9.37;7.40;;;;;;;15.97;55.52;97617.03;5094283;28;20451;-67
2021/10/07 09:42:41;;;;;;;4.70;4.30;;;;;;;15.95;56.03;97624.31;5073362;28;20609;-67
2021/10/07 09:45:21;;;;;;;10.47;5.60;;;;;;;15.72;57.36;97619.84;5092829;28;20499;-66
2021/10/07 09:47:56;;;;;;;7.00;5.80;;;;;;;15.75;57.21;97624.75;5092908;28;20456;-67
2021/10/07 09:50:33;;;;;;;7.33;5.20;;;;;;;15.56;57.42;97627.84;5073479;28;20437;-66
2021/10/07 09:52:58;;;;;;;6.53;5.90;;;;;;;15.43;57.71;97623.94;5091397;28;20530;-65
2021/10/07 09:55:27;;;;;;;7.13;5.57;;;;;;;15.69;57.56;97627.28;5093020;28;20561;-66
2021/10/07 09:58:23;;;;;;;8.13;6.60;;;;;;;15.41;57.55;97622.47;5092545;28;20189;-66
2021/10/07 10:00:50;;;;;;;11.70;7.00;;;;;;;15.60;57.14;97622.03;5094925;28;20432;-68
2021/10/07 10:03:17;;;;;;;7.93;5.80;;;;;;;15.66;56.91;97617.88;5094255;28;20451;-66
2021/10/07 10:05:44;;;;;;;7.53;6.13;;;;;;;15.62;57.18;97619.25;5095187;28;20444;-65
2021/10/07 10:08:11;;;;;;;12.03;7.27;;;;;;;15.55;57.37;97623.56;5094478;28;20443;-67
2021/10/07 10:10:40;;;;;;;9.77;7.00;;;;;;;15.42;57.77;97609.09;5094855;28;20499;-65
2021/10/07 10:13:06;;;;;;;10.03;7.30;;;;;;;15.38;58.19;97607.78;5094938;28;20416;-66
2021/10/07 10:15:33;;;;;;;11.27;7.60;;;;;;;14.98;58.94;97613.09;5094960;28;20418;-66
2021/10/07 10:18:00;;;;;;;10.77;7.90;;;;;;;15.61;57.23;97617.59;5094465;28;20424;-65
2021/10/07 10:20:27;;;;;;;12.87;7.47;;;;;;;15.47;57.54;97616.50;5095358;28;20910;-67
2021/10/07 10:23:08;;;;;;;12.37;7.63;;;;;;;14.96;59.08;97611.63;5090021;28;20503;-68
2021/10/07 10:25:58;;;;;;;11.33;7.17;;;;;;;15.50;57.84;97616.16;5093927;28;20424;-66
2021/10/07 10:28:31;;;;;;;8.10;6.37;;;;;;;15.25;58.72;97610.19;5087817;28;20432;-67
2021/10/07 10:31:03;;;;;;;12.60;6.90;;;;;;;15.62;56.98;97608.66;5092831;28;20517;-67
2021/10/07 10:33:35;;;;;;;10.27;7.80;;;;;;;15.73;57.43;97615.34;5093359;28;20922;-67
2021/10/07 10:36:00;;;;;;;30.67;21.43;;;;;;;16.31;55.40;97607.84;5093179;28;20534;-66
2021/10/07 10:38:28;;;;;;;10.73;7.50;;;;;;;16.47;55.00;97616.63;5094678;28;20806;-66
2021/10/07 10:40:54;;;;;;;10.97;6.63;;;;;;;16.68;53.22;97618.59;5093182;28;20182;-67
2021/10/07 10:43:22;;;;;;;10.40;6.60;;;;;;;17.09;52.94;97626.06;5094494;28;20408;-66
2021/10/07 10:46:08;;;;;;;8.00;6.40;;;;;;;16.26;54.11;97624.25;5094631;28;20416;-65
2021/10/07 10:48:40;;;;;;;7.60;6.47;;;;;;;16.70;53.58;97624.50;5094329;28;20903;-68
2021/10/07 10:51:09;;;;;;;8.90;6.40;;;;;;;16.85;52.59;97619.22;5094488;28;20441;-66
2021/10/07 10:53:48;;;;;;;16.57;8.20;;;;;;;16.87;52.60;97622.50;5091086;28;20512;-65
2021/10/07 10:56:14;;;;;;;10.50;6.57;;;;;;;16.85;52.02;97620.03;5086415;28;20423;-64
2021/10/07 10:58:40;;;;;;;11.77;8.03;;;;;;;16.45;53.75;97629.22;5094141;28;20458;-66
2021/10/07 11:01:13;;;;;;;13.00;7.70;;;;;;;16.56;53.94;97623.47;5092231;28;20759;-65
2021/10/07 11:03:39;;;;;;;15.00;8.20;;;;;;;16.79;53.41;97619.94;5094068;28;20423;-66
2021/10/07 11:06:11;;;;;;;9.97;8.40;;;;;;;16.48;54.91;97628.84;5093439;28;20514;-65
2021/10/07 11:08:42;;;;;;;10.67;7.73;;;;;;;15.76;56.95;97630.88;5093693;28;20498;-64
2021/10/07 11:11:10;;;;;;;11.43;8.63;;;;;;;16.38;55.79;97629.91;5093378;28;20434;-66
2021/10/07 11:13:48;;;;;;;10.10;7.87;;;;;;;16.56;54.58;97626.97;5093929;28;20423;-66
2021/10/07 11:16:17;;;;;;;10.77;7.50;;;;;;;16.11;54.99;97623.38;5093683;28;20466;-67
2021/10/07 11:18:43;;;;;;;9.33;8.00;;;;;;;15.91;55.62;97628.31;5092719;28;20440;-66
2021/10/07 11:21:15;;;;;;;9.17;7.63;;;;;;;16.16;55.41;97622.84;5093067;28;20427;-65
2021/10/07 11:23:41;;;;;;;9.67;7.80;;;;;;;15.88;56.17;97623.41;5090172;28;20415;-65
2021/10/07 11:26:07;;;;;;;24.70;7.50;;;;;;;16.09;55.53;97618.28;5093233;28;20506;-66
2021/10/07 11:28:40;;;;;;;10.33;7.70;;;;;;;16.39;55.15;97620.16;5092150;28;20435;-65
2021/10/07 11:31:15;;;;;;;17.60;8.53;;;;;;;16.81;53.88;97613.47;5092197;28;20188;-67
2021/10/07 11:33:43;;;;;;;10.40;7.23;;;;;;;17.15;52.94;97612.13;5093414;28;20424;-67
2021/10/07 11:36:14;;;;;;;8.20;7.40;;;;;;;17.39;52.46;97614.66;5093087;28;20439;-65
2021/10/07 11:38:42;;;;;;;10.20;7.67;;;;;;;17.35;52.28;97620.31;5092714;28;20980;-66
2021/10/07 11:41:09;;;;;;;12.60;8.10;;;;;;;17.11;52.38;97617.97;5093018;28;20641;-68